Charlottesville Albemarle Airport
KCHO : now visible

Airfield :











YOU CAN JOIN US ON...

 
LOGIN :

Register | Disclaimer

   EN    FR    IT 

 









Legend :    VFR   Marginal VFR   IFR   Intensive IFR   Very Intensive IFR
Visi :
Ceiling :
>= 8 km
>= 3000ft
5 to 8 km
1000 to 3000 ft
1500m to 5 km
500 to 1000 ft
800 to 1500m
200 to 500 ft
< 800m
< 200 ft
Symbols :   Thunderstorms  Fog  Heavy snow  Heavy precipitations  Wind > 20 kt






- Airport Elevation : 639 ft
- IATA code : CHO


KCHO - Charlottesville Albemarle

CURRENT METAR :
  • 141953Z 22007G15KT 200V270 10SM BKN110 14/06 A2937 RMK AO2 SLP943 T01390056

EXPIRED METARs :
  • 141853Z 23009G15KT 10SM OVC110 15/07 A2935 RMK AO2 SLP937 T01500067
  • 141753Z 22007KT 10SM OVC100 14/09 A2935 RMK AO2 SLP938 60039 T01440089 10144 20056 58025

TAF KCHO
Valid from the 14 at 18:00 until the 15 at 18:00 UTC


141726Z 1418/1518 21005KT P6SM BKN045
FM142000 26009KT P6SM BKN070
FM142300 27010KT P6SM SCT120
FM150000 27009KT P6SM FEW250
FM150300 25007KT P6SM SCT200



MET'MAP, your aeronautical weather chart ! - Copyright ORBIFLY December 2007 - Disclaimer

ORBIFLY MET'MAP TEAM :

Programming & Development : Alexandra Zaïnal
Concept & original design : Baudouin d'Aumeries
Assistance for programming : Marc-Olivier Méhu
Technical & hardware support : Manuel Goepfert

Contact : metmap@orbifly.com




SOURCES & CREDITS :

   NOAA       Earth
Advisory